sensor_id;sensor_type;location;lat;lon;timestamp;P1;durP1;ratioP1;P2;durP2;ratioP2
68718;SDS011;55696;52.138;5.444;2023-04-25T00:01:55;27.03;;;5.27;;
68718;SDS011;55696;52.138;5.444;2023-04-25T00:04:22;26.35;;;7.45;;
68718;SDS011;55696;52.138;5.444;2023-04-25T00:06:50;21.65;;;5.82;;
68718;SDS011;55696;52.138;5.444;2023-04-25T00:09:18;29.23;;;9.68;;
68718;SDS011;55696;52.138;5.444;2023-04-25T00:11:45;32.42;;;8.35;;
68718;SDS011;55696;52.138;5.444;2023-04-25T00:14:11;19.27;;;5.53;;
68718;SDS011;55696;52.138;5.444;2023-04-25T00:16:38;16.40;;;3.63;;
68718;SDS011;55696;52.138;5.444;2023-04-25T00:19:07;17.88;;;3.70;;
68718;SDS011;55696;52.138;5.444;2023-04-25T00:21:34;16.42;;;3.90;;
68718;SDS011;55696;52.138;5.444;2023-04-25T00:24:01;16.75;;;4.78;;
68718;SDS011;55696;52.138;5.444;2023-04-25T00:26:28;14.43;;;3.63;;
68718;SDS011;55696;52.138;5.444;2023-04-25T00:28:55;20.35;;;3.58;;
68718;SDS011;55696;52.138;5.444;2023-04-25T00:31:21;13.77;;;3.55;;
68718;SDS011;55696;52.138;5.444;2023-04-25T00:33:48;17.77;;;5.47;;
68718;SDS011;55696;52.138;5.444;2023-04-25T00:36:16;16.45;;;4.30;;
68718;SDS011;55696;52.138;5.444;2023-04-25T00:38:43;22.57;;;5.13;;
68718;SDS011;55696;52.138;5.444;2023-04-25T00:41:10;22.40;;;5.47;;
68718;SDS011;55696;52.138;5.444;2023-04-25T00:43:37;20.88;;;5.47;;
68718;SDS011;55696;52.138;5.444;2023-04-25T00:46:06;11.45;;;4.82;;
68718;SDS011;55696;52.138;5.444;2023-04-25T00:48:33;20.67;;;4.05;;
68718;SDS011;55696;52.138;5.444;2023-04-25T00:50:59;21.63;;;5.50;;
68718;SDS011;55696;52.138;5.444;2023-04-25T00:53:27;12.15;;;3.20;;
68718;SDS011;55696;52.138;5.444;2023-04-25T00:55:55;19.67;;;4.72;;
68718;SDS011;55696;52.138;5.444;2023-04-25T00:58:23;18.52;;;4.63;;
68718;SDS011;55696;52.138;5.444;2023-04-25T01:00:50;14.55;;;4.25;;
68718;SDS011;55696;52.138;5.444;2023-04-25T01:03:18;15.13;;;3.50;;
68718;SDS011;55696;52.138;5.444;2023-04-25T01:05:46;8.35;;;3.22;;
68718;SDS011;55696;52.138;5.444;2023-04-25T01:08:14;14.52;;;3.35;;
68718;SDS011;55696;52.138;5.444;2023-04-25T01:10:41;13.07;;;2.72;;
68718;SDS011;55696;52.138;5.444;2023-04-25T01:13:08;13.13;;;3.25;;
68718;SDS011;55696;52.138;5.444;2023-04-25T01:15:35;16.07;;;2.67;;
68718;SDS011;55696;52.138;5.444;2023-04-25T01:18:02;21.65;;;3.22;;
68718;SDS011;55696;52.138;5.444;2023-04-25T01:20:32;11.93;;;3.28;;
68718;SDS011;55696;52.138;5.444;2023-04-25T01:22:59;16.55;;;3.38;;
68718;SDS011;55696;52.138;5.444;2023-04-25T01:25:29;12.38;;;2.92;;
68718;SDS011;55696;52.138;5.444;2023-04-25T01:27:57;14.77;;;3.60;;
68718;SDS011;55696;52.138;5.444;2023-04-25T01:30:28;15.80;;;3.83;;
68718;SDS011;55696;52.138;5.444;2023-04-25T01:32:56;12.32;;;3.17;;
68718;SDS011;55696;52.138;5.444;2023-04-25T01:35:23;21.38;;;3.88;;
68718;SDS011;55696;52.138;5.444;2023-04-25T01:37:53;13.13;;;3.45;;
68718;SDS011;55696;52.138;5.444;2023-04-25T01:40:20;14.90;;;3.93;;
68718;SDS011;55696;52.138;5.444;2023-04-25T01:42:49;10.77;;;3.08;;
68718;SDS011;55696;52.138;5.444;2023-04-25T01:45:18;17.67;;;3.90;;
68718;SDS011;55696;52.138;5.444;2023-04-25T01:47:45;16.40;;;3.03;;
68718;SDS011;55696;52.138;5.444;2023-04-25T01:50:16;6.07;;;2.67;;
68718;SDS011;55696;52.138;5.444;2023-04-25T01:52:44;12.43;;;2.93;;
68718;SDS011;55696;52.138;5.444;2023-04-25T01:55:12;13.52;;;3.10;;
68718;SDS011;55696;52.138;5.444;2023-04-25T01:57:48;15.70;;;3.10;;
68718;SDS011;55696;52.138;5.444;2023-04-25T02:00:16;21.52;;;3.22;;
68718;SDS011;55696;52.138;5.444;2023-04-25T02:02:43;14.63;;;3.38;;
68718;SDS011;55696;52.138;5.444;2023-04-25T02:05:19;13.93;;;3.10;;
68718;SDS011;55696;52.138;5.444;2023-04-25T02:07:47;10.43;;;3.00;;
68718;SDS011;55696;52.138;5.444;2023-04-25T02:10:14;16.58;;;3.05;;
68718;SDS011;55696;52.138;5.444;2023-04-25T02:13:01;15.23;;;3.80;;
68718;SDS011;55696;52.138;5.444;2023-04-25T02:15:47;18.60;;;3.25;;
68718;SDS011;55696;52.138;5.444;2023-04-25T02:18:16;9.23;;;2.77;;
68718;SDS011;55696;52.138;5.444;2023-04-25T02:20:45;15.27;;;2.95;;
68718;SDS011;55696;52.138;5.444;2023-04-25T02:23:13;11.27;;;3.38;;
68718;SDS011;55696;52.138;5.444;2023-04-25T02:25:41;15.23;;;3.00;;
68718;SDS011;55696;52.138;5.444;2023-04-25T02:28:08;13.88;;;3.17;;
68718;SDS011;55696;52.138;5.444;2023-04-25T02:30:35;13.53;;;2.97;;
68718;SDS011;55696;52.138;5.444;2023-04-25T02:33:04;10.82;;;2.92;;
68718;SDS011;55696;52.138;5.444;2023-04-25T02:35:31;12.15;;;2.95;;
68718;SDS011;55696;52.138;5.444;2023-04-25T02:37:57;15.15;;;2.67;;
68718;SDS011;55696;52.138;5.444;2023-04-25T02:40:24;8.38;;;3.10;;
68718;SDS011;55696;52.138;5.444;2023-04-25T02:42:53;11.43;;;3.03;;
68718;SDS011;55696;52.138;5.444;2023-04-25T02:45:19;14.85;;;2.80;;
68718;SDS011;55696;52.138;5.444;2023-04-25T02:47:47;20.33;;;3.25;;
68718;SDS011;55696;52.138;5.444;2023-04-25T02:50:13;13.82;;;3.70;;
68718;SDS011;55696;52.138;5.444;2023-04-25T02:52:40;8.90;;;2.40;;
68718;SDS011;55696;52.138;5.444;2023-04-25T02:55:13;5.70;;;2.37;;
68718;SDS011;55696;52.138;5.444;2023-04-25T02:57:41;10.15;;;2.13;;
68718;SDS011;55696;52.138;5.444;2023-04-25T03:00:12;9.23;;;2.65;;
68718;SDS011;55696;52.138;5.444;2023-04-25T03:02:40;10.02;;;3.40;;
68718;SDS011;55696;52.138;5.444;2023-04-25T03:05:07;6.70;;;2.40;;
68718;SDS011;55696;52.138;5.444;2023-04-25T03:07:35;10.47;;;2.70;;
68718;SDS011;55696;52.138;5.444;2023-04-25T03:10:01;11.70;;;3.13;;
68718;SDS011;55696;52.138;5.444;2023-04-25T03:12:30;11.90;;;2.25;;
68718;SDS011;55696;52.138;5.444;2023-04-25T03:14:57;14.63;;;3.55;;
68718;SDS011;55696;52.138;5.444;2023-04-25T03:17:24;9.88;;;2.50;;
68718;SDS011;55696;52.138;5.444;2023-04-25T03:19:51;8.10;;;2.80;;
68718;SDS011;55696;52.138;5.444;2023-04-25T03:22:17;21.48;;;3.45;;
68718;SDS011;55696;52.138;5.444;2023-04-25T03:24:44;12.48;;;3.00;;
68718;SDS011;55696;52.138;5.444;2023-04-25T03:27:13;11.23;;;3.30;;
68718;SDS011;55696;52.138;5.444;2023-04-25T03:29:39;13.32;;;2.42;;
68718;SDS011;55696;52.138;5.444;2023-04-25T03:32:07;11.20;;;2.50;;
68718;SDS011;55696;52.138;5.444;2023-04-25T03:34:34;14.68;;;2.92;;
68718;SDS011;55696;52.138;5.444;2023-04-25T03:37:01;12.68;;;2.67;;
68718;SDS011;55696;52.138;5.444;2023-04-25T03:39:32;9.35;;;2.60;;
68718;SDS011;55696;52.138;5.444;2023-04-25T03:41:59;15.63;;;3.25;;
68718;SDS011;55696;52.138;5.444;2023-04-25T03:44:27;12.47;;;3.00;;
68718;SDS011;55696;52.138;5.444;2023-04-25T03:46:54;14.27;;;3.10;;
68718;SDS011;55696;52.138;5.444;2023-04-25T03:49:24;12.35;;;2.55;;
68718;SDS011;55696;52.138;5.444;2023-04-25T03:52:02;15.00;;;4.00;;
68718;SDS011;55696;52.138;5.444;2023-04-25T03:54:34;9.40;;;2.63;;
68718;SDS011;55696;52.138;5.444;2023-04-25T03:57:07;13.63;;;3.07;;
68718;SDS011;55696;52.138;5.444;2023-04-25T03:59:37;11.93;;;2.53;;
68718;SDS011;55696;52.138;5.444;2023-04-25T04:02:05;17.52;;;2.85;;
68718;SDS011;55696;52.138;5.444;2023-04-25T04:04:34;14.23;;;3.03;;
68718;SDS011;55696;52.138;5.444;2023-04-25T04:07:02;9.85;;;2.80;;
68718;SDS011;55696;52.138;5.444;2023-04-25T04:09:33;14.57;;;3.23;;
68718;SDS011;55696;52.138;5.444;2023-04-25T04:12:03;10.02;;;2.72;;
68718;SDS011;55696;52.138;5.444;2023-04-25T04:14:31;9.18;;;2.28;;
68718;SDS011;55696;52.138;5.444;2023-04-25T04:16:58;10.88;;;1.88;;
68718;SDS011;55696;52.138;5.444;2023-04-25T04:19:25;11.25;;;2.40;;
68718;SDS011;55696;52.138;5.444;2023-04-25T04:22:03;15.87;;;2.80;;
68718;SDS011;55696;52.138;5.444;2023-04-25T04:24:30;8.93;;;1.85;;
68718;SDS011;55696;52.138;5.444;2023-04-25T04:27:01;9.85;;;2.22;;
68718;SDS011;55696;52.138;5.444;2023-04-25T04:29:48;13.63;;;2.42;;
68718;SDS011;55696;52.138;5.444;2023-04-25T04:32:24;10.63;;;2.00;;
68718;SDS011;55696;52.138;5.444;2023-04-25T04:34:52;9.57;;;2.20;;
68718;SDS011;55696;52.138;5.444;2023-04-25T04:37:22;13.73;;;1.85;;
68718;SDS011;55696;52.138;5.444;2023-04-25T04:39:49;7.95;;;1.98;;
68718;SDS011;55696;52.138;5.444;2023-04-25T04:42:27;7.18;;;1.95;;
68718;SDS011;55696;52.138;5.444;2023-04-25T04:45:08;12.10;;;1.83;;
68718;SDS011;55696;52.138;5.444;2023-04-25T04:47:54;7.67;;;1.70;;
68718;SDS011;55696;52.138;5.444;2023-04-25T04:50:53;6.65;;;1.60;;
68718;SDS011;55696;52.138;5.444;2023-04-25T04:53:38;9.05;;;1.70;;
68718;SDS011;55696;52.138;5.444;2023-04-25T04:56:24;4.68;;;1.35;;
68718;SDS011;55696;52.138;5.444;2023-04-25T04:58:57;12.93;;;2.40;;
68718;SDS011;55696;52.138;5.444;2023-04-25T05:01:37;6.53;;;2.10;;
68718;SDS011;55696;52.138;5.444;2023-04-25T05:04:25;7.78;;;2.60;;
68718;SDS011;55696;52.138;5.444;2023-04-25T05:07:18;4.82;;;1.40;;
68718;SDS011;55696;52.138;5.444;2023-04-25T05:10:05;7.15;;;1.75;;
68718;SDS011;55696;52.138;5.444;2023-04-25T05:12:35;15.73;;;1.98;;
68718;SDS011;55696;52.138;5.444;2023-04-25T05:15:30;6.63;;;1.80;;
68718;SDS011;55696;52.138;5.444;2023-04-25T05:18:17;6.90;;;1.75;;
68718;SDS011;55696;52.138;5.444;2023-04-25T05:21:04;5.20;;;1.60;;
68718;SDS011;55696;52.138;5.444;2023-04-25T05:23:54;10.02;;;2.47;;
68718;SDS011;55696;52.138;5.444;2023-04-25T05:26:45;9.60;;;1.88;;
68718;SDS011;55696;52.138;5.444;2023-04-25T05:29:27;10.20;;;1.90;;
68718;SDS011;55696;52.138;5.444;2023-04-25T05:32:19;10.57;;;1.90;;
68718;SDS011;55696;52.138;5.444;2023-04-25T05:34:48;8.85;;;2.20;;
68718;SDS011;55696;52.138;5.444;2023-04-25T05:37:31;11.55;;;2.03;;
68718;SDS011;55696;52.138;5.444;2023-04-25T05:40:08;8.27;;;1.80;;
68718;SDS011;55696;52.138;5.444;2023-04-25T05:42:54;7.70;;;1.90;;
68718;SDS011;55696;52.138;5.444;2023-04-25T05:45:27;6.80;;;1.23;;
68718;SDS011;55696;52.138;5.444;2023-04-25T05:48:27;10.25;;;2.35;;
68718;SDS011;55696;52.138;5.444;2023-04-25T05:51:01;9.15;;;1.77;;
68718;SDS011;55696;52.138;5.444;2023-04-25T05:53:51;8.82;;;2.33;;
68718;SDS011;55696;52.138;5.444;2023-04-25T05:56:18;6.70;;;1.80;;
68718;SDS011;55696;52.138;5.444;2023-04-25T05:58:50;6.90;;;1.58;;
68718;SDS011;55696;52.138;5.444;2023-04-25T06:01:17;12.10;;;1.80;;
68718;SDS011;55696;52.138;5.444;2023-04-25T06:03:44;9.98;;;1.83;;
68718;SDS011;55696;52.138;5.444;2023-04-25T06:06:11;8.75;;;2.13;;
68718;SDS011;55696;52.138;5.444;2023-04-25T06:08:39;9.23;;;1.90;;
68718;SDS011;55696;52.138;5.444;2023-04-25T06:11:10;11.98;;;1.80;;
68718;SDS011;55696;52.138;5.444;2023-04-25T06:13:37;9.40;;;1.60;;
68718;SDS011;55696;52.138;5.444;2023-04-25T06:16:04;6.75;;;1.73;;
68718;SDS011;55696;52.138;5.444;2023-04-25T06:18:32;10.75;;;2.40;;
68718;SDS011;55696;52.138;5.444;2023-04-25T06:20:59;6.87;;;2.07;;
68718;SDS011;55696;52.138;5.444;2023-04-25T06:23:26;14.07;;;2.42;;
68718;SDS011;55696;52.138;5.444;2023-04-25T06:26:01;10.68;;;1.95;;
68718;SDS011;55696;52.138;5.444;2023-04-25T06:28:29;6.93;;;1.77;;
68718;SDS011;55696;52.138;5.444;2023-04-25T06:30:56;5.65;;;1.50;;
68718;SDS011;55696;52.138;5.444;2023-04-25T06:33:23;11.40;;;1.93;;
68718;SDS011;55696;52.138;5.444;2023-04-25T06:35:51;9.82;;;2.30;;
68718;SDS011;55696;52.138;5.444;2023-04-25T06:38:22;5.65;;;1.70;;
68718;SDS011;55696;52.138;5.444;2023-04-25T06:40:51;15.82;;;1.90;;
68718;SDS011;55696;52.138;5.444;2023-04-25T06:43:18;6.47;;;1.70;;
68718;SDS011;55696;52.138;5.444;2023-04-25T06:45:53;9.07;;;2.00;;
68718;SDS011;55696;52.138;5.444;2023-04-25T06:48:22;3.60;;;1.23;;
68718;SDS011;55696;52.138;5.444;2023-04-25T06:50:49;9.35;;;1.42;;
68718;SDS011;55696;52.138;5.444;2023-04-25T06:53:17;9.93;;;1.50;;
68718;SDS011;55696;52.138;5.444;2023-04-25T06:55:48;11.23;;;2.20;;
68718;SDS011;55696;52.138;5.444;2023-04-25T06:58:20;10.03;;;2.33;;
68718;SDS011;55696;52.138;5.444;2023-04-25T07:00:53;6.93;;;1.60;;
68718;SDS011;55696;52.138;5.444;2023-04-25T07:03:22;8.30;;;1.85;;
68718;SDS011;55696;52.138;5.444;2023-04-25T07:05:54;7.25;;;1.73;;
68718;SDS011;55696;52.138;5.444;2023-04-25T07:08:22;7.38;;;2.15;;
68718;SDS011;55696;52.138;5.444;2023-04-25T07:10:49;9.73;;;2.27;;
68718;SDS011;55696;52.138;5.444;2023-04-25T07:13:16;13.68;;;2.08;;
68718;SDS011;55696;52.138;5.444;2023-04-25T07:15:43;9.02;;;1.50;;
68718;SDS011;55696;52.138;5.444;2023-04-25T07:18:11;9.45;;;1.98;;
68718;SDS011;55696;52.138;5.444;2023-04-25T07:20:38;13.38;;;1.98;;
68718;SDS011;55696;52.138;5.444;2023-04-25T07:23:05;11.20;;;1.93;;
68718;SDS011;55696;52.138;5.444;2023-04-25T07:25:32;9.00;;;1.88;;
68718;SDS011;55696;52.138;5.444;2023-04-25T07:28:00;6.57;;;2.20;;
68718;SDS011;55696;52.138;5.444;2023-04-25T07:30:27;9.20;;;2.47;;
68718;SDS011;55696;52.138;5.444;2023-04-25T07:32:54;7.63;;;1.75;;
68718;SDS011;55696;52.138;5.444;2023-04-25T07:35:21;14.40;;;1.77;;
68718;SDS011;55696;52.138;5.444;2023-04-25T07:37:48;10.48;;;2.20;;
68718;SDS011;55696;52.138;5.444;2023-04-25T07:40:17;10.93;;;1.75;;
68718;SDS011;55696;52.138;5.444;2023-04-25T07:42:52;9.20;;;1.75;;
68718;SDS011;55696;52.138;5.444;2023-04-25T07:45:26;4.82;;;1.50;;
68718;SDS011;55696;52.138;5.444;2023-04-25T07:47:53;7.43;;;1.63;;
68718;SDS011;55696;52.138;5.444;2023-04-25T07:50:20;9.27;;;1.95;;
68718;SDS011;55696;52.138;5.444;2023-04-25T07:52:47;8.45;;;1.50;;
68718;SDS011;55696;52.138;5.444;2023-04-25T07:55:21;15.50;;;1.95;;
68718;SDS011;55696;52.138;5.444;2023-04-25T07:57:57;5.15;;;1.50;;
68718;SDS011;55696;52.138;5.444;2023-04-25T08:00:27;7.57;;;1.90;;
68718;SDS011;55696;52.138;5.444;2023-04-25T08:03:14;7.57;;;2.20;;
68718;SDS011;55696;52.138;5.444;2023-04-25T08:05:41;5.50;;;1.50;;
68718;SDS011;55696;52.138;5.444;2023-04-25T08:08:09;7.53;;;1.50;;
68718;SDS011;55696;52.138;5.444;2023-04-25T08:10:36;11.25;;;1.75;;
68718;SDS011;55696;52.138;5.444;2023-04-25T08:13:03;10.53;;;2.20;;
68718;SDS011;55696;52.138;5.444;2023-04-25T08:15:29;9.18;;;2.22;;
68718;SDS011;55696;52.138;5.444;2023-04-25T08:17:57;10.23;;;1.83;;
68718;SDS011;55696;52.138;5.444;2023-04-25T08:20:24;11.10;;;2.15;;
68718;SDS011;55696;52.138;5.444;2023-04-25T08:22:53;7.78;;;1.50;;
68718;SDS011;55696;52.138;5.444;2023-04-25T08:25:28;8.27;;;1.67;;
68718;SDS011;55696;52.138;5.444;2023-04-25T08:27:54;8.05;;;1.50;;
68718;SDS011;55696;52.138;5.444;2023-04-25T08:30:22;6.85;;;1.50;;
68718;SDS011;55696;52.138;5.444;2023-04-25T08:32:50;5.93;;;1.38;;
68718;SDS011;55696;52.138;5.444;2023-04-25T08:35:52;6.00;;;1.20;;
68718;SDS011;55696;52.138;5.444;2023-04-25T08:38:19;6.40;;;2.03;;
68718;SDS011;55696;52.138;5.444;2023-04-25T08:40:50;6.55;;;1.42;;
68718;SDS011;55696;52.138;5.444;2023-04-25T08:43:19;7.45;;;1.50;;
68718;SDS011;55696;52.138;5.444;2023-04-25T08:45:47;7.75;;;1.20;;
68718;SDS011;55696;52.138;5.444;2023-04-25T08:48:28;6.30;;;1.42;;
68718;SDS011;55696;52.138;5.444;2023-04-25T08:50:59;7.33;;;1.50;;
68718;SDS011;55696;52.138;5.444;2023-04-25T08:53:30;8.55;;;1.52;;
68718;SDS011;55696;52.138;5.444;2023-04-25T08:56:02;6.97;;;1.10;;
68718;SDS011;55696;52.138;5.444;2023-04-25T08:58:33;5.15;;;1.27;;
68718;SDS011;55696;52.138;5.444;2023-04-25T09:01:01;7.40;;;1.70;;
68718;SDS011;55696;52.138;5.444;2023-04-25T09:03:32;9.57;;;1.63;;
68718;SDS011;55696;52.138;5.444;2023-04-25T09:05:59;8.27;;;1.67;;
68718;SDS011;55696;52.138;5.444;2023-04-25T09:08:27;6.85;;;1.95;;
68718;SDS011;55696;52.138;5.444;2023-04-25T09:10:53;5.65;;;1.75;;
68718;SDS011;55696;52.138;5.444;2023-04-25T09:13:25;11.70;;;1.75;;
68718;SDS011;55696;52.138;5.444;2023-04-25T09:16:17;7.83;;;1.77;;
68718;SDS011;55696;52.138;5.444;2023-04-25T09:19:06;7.82;;;1.70;;
68718;SDS011;55696;52.138;5.444;2023-04-25T09:21:34;5.32;;;1.27;;
68718;SDS011;55696;52.138;5.444;2023-04-25T09:24:01;7.18;;;2.22;;
68718;SDS011;55696;52.138;5.444;2023-04-25T09:26:28;4.63;;;1.30;;
68718;SDS011;55696;52.138;5.444;2023-04-25T09:29:06;4.47;;;1.30;;
68718;SDS011;55696;52.138;5.444;2023-04-25T09:31:35;9.48;;;1.27;;
68718;SDS011;55696;52.138;5.444;2023-04-25T09:34:04;4.63;;;1.10;;
68718;SDS011;55696;52.138;5.444;2023-04-25T09:36:40;3.90;;;1.10;;
68718;SDS011;55696;52.138;5.444;2023-04-25T09:39:38;7.75;;;1.90;;
68718;SDS011;55696;52.138;5.444;2023-04-25T09:42:12;5.40;;;1.77;;
68718;SDS011;55696;52.138;5.444;2023-04-25T09:44:41;5.05;;;1.25;;
68718;SDS011;55696;52.138;5.444;2023-04-25T09:47:10;4.63;;;1.60;;
68718;SDS011;55696;52.138;5.444;2023-04-25T09:49:40;6.82;;;1.67;;
68718;SDS011;55696;52.138;5.444;2023-04-25T09:52:15;7.78;;;1.30;;
68718;SDS011;55696;52.138;5.444;2023-04-25T09:54:53;5.40;;;1.53;;
68718;SDS011;55696;52.138;5.444;2023-04-25T09:57:27;4.53;;;1.20;;
68718;SDS011;55696;52.138;5.444;2023-04-25T09:59:55;4.55;;;1.73;;
68718;SDS011;55696;52.138;5.444;2023-04-25T10:02:26;10.68;;;1.40;;
68718;SDS011;55696;52.138;5.444;2023-04-25T10:05:05;3.53;;;1.20;;
68718;SDS011;55696;52.138;5.444;2023-04-25T10:07:37;4.90;;;1.33;;
68718;SDS011;55696;52.138;5.444;2023-04-25T10:10:15;7.68;;;1.60;;
68718;SDS011;55696;52.138;5.444;2023-04-25T10:12:42;7.40;;;1.50;;
68718;SDS011;55696;52.138;5.444;2023-04-25T10:15:11;8.32;;;1.65;;
68718;SDS011;55696;52.138;5.444;2023-04-25T10:17:39;6.97;;;1.25;;
68718;SDS011;55696;52.138;5.444;2023-04-25T10:20:07;8.17;;;1.40;;
68718;SDS011;55696;52.138;5.444;2023-04-25T10:22:38;6.80;;;1.63;;
68718;SDS011;55696;52.138;5.444;2023-04-25T10:25:08;5.30;;;1.48;;
68718;SDS011;55696;52.138;5.444;2023-04-25T10:27:35;3.22;;;1.27;;
68718;SDS011;55696;52.138;5.444;2023-04-25T10:30:03;6.40;;;1.38;;
68718;SDS011;55696;52.138;5.444;2023-04-25T10:32:37;7.37;;;1.90;;
68718;SDS011;55696;52.138;5.444;2023-04-25T10:35:11;5.63;;;1.40;;
68718;SDS011;55696;52.138;5.444;2023-04-25T10:37:38;5.22;;;1.25;;
68718;SDS011;55696;52.138;5.444;2023-04-25T10:40:24;3.75;;;1.25;;
68718;SDS011;55696;52.138;5.444;2023-04-25T10:42:52;7.38;;;1.50;;
68718;SDS011;55696;52.138;5.444;2023-04-25T10:45:20;10.03;;;1.70;;
68718;SDS011;55696;52.138;5.444;2023-04-25T10:47:47;6.68;;;1.42;;
68718;SDS011;55696;52.138;5.444;2023-04-25T10:50:14;5.85;;;1.60;;
68718;SDS011;55696;52.138;5.444;2023-04-25T10:52:44;5.93;;;1.50;;
68718;SDS011;55696;52.138;5.444;2023-04-25T10:55:11;6.43;;;1.23;;
68718;SDS011;55696;52.138;5.444;2023-04-25T10:57:42;5.73;;;1.60;;
68718;SDS011;55696;52.138;5.444;2023-04-25T11:02:43;8.13;;;2.53;;
68718;SDS011;55696;52.138;5.444;2023-04-25T11:05:19;9.77;;;1.48;;
68718;SDS011;55696;52.138;5.444;2023-04-25T11:07:58;4.55;;;1.20;;
68718;SDS011;55696;52.138;5.444;2023-04-25T11:10:33;7.87;;;1.30;;
68718;SDS011;55696;52.138;5.444;2023-04-25T11:13:03;5.15;;;1.30;;
68718;SDS011;55696;52.138;5.444;2023-04-25T11:15:31;5.57;;;1.67;;
68718;SDS011;55696;52.138;5.444;2023-04-25T11:17:57;8.50;;;1.60;;
68718;SDS011;55696;52.138;5.444;2023-04-25T11:20:25;6.40;;;1.65;;
68718;SDS011;55696;52.138;5.444;2023-04-25T11:22:54;5.10;;;1.50;;
68718;SDS011;55696;52.138;5.444;2023-04-25T11:25:25;5.30;;;1.70;;
68718;SDS011;55696;52.138;5.444;2023-04-25T11:30:20;3.42;;;1.20;;
68718;SDS011;55696;52.138;5.444;2023-04-25T11:32:47;6.20;;;1.30;;
68718;SDS011;55696;52.138;5.444;2023-04-25T11:35:14;6.60;;;1.47;;
68718;SDS011;55696;52.138;5.444;2023-04-25T11:37:42;5.35;;;1.60;;
68718;SDS011;55696;52.138;5.444;2023-04-25T11:40:09;5.60;;;2.30;;
68718;SDS011;55696;52.138;5.444;2023-04-25T11:42:45;9.25;;;2.03;;
68718;SDS011;55696;52.138;5.444;2023-04-25T11:45:13;3.80;;;1.48;;
68718;SDS011;55696;52.138;5.444;2023-04-25T11:47:40;9.97;;;1.20;;
68718;SDS011;55696;52.138;5.444;2023-04-25T11:50:08;7.45;;;1.42;;
68718;SDS011;55696;52.138;5.444;2023-04-25T11:52:39;7.85;;;1.65;;
68718;SDS011;55696;52.138;5.444;2023-04-25T11:55:12;4.90;;;1.10;;
68718;SDS011;55696;52.138;5.444;2023-04-25T11:57:44;6.63;;;1.35;;
68718;SDS011;55696;52.138;5.444;2023-04-25T12:00:18;5.73;;;1.87;;
68718;SDS011;55696;52.138;5.444;2023-04-25T12:02:51;7.05;;;1.50;;
68718;SDS011;55696;52.138;5.444;2023-04-25T12:05:27;7.50;;;1.23;;
68718;SDS011;55696;52.138;5.444;2023-04-25T12:08:15;3.78;;;1.10;;
68718;SDS011;55696;52.138;5.444;2023-04-25T12:10:43;5.30;;;1.50;;
68718;SDS011;55696;52.138;5.444;2023-04-25T12:13:19;8.93;;;2.13;;
68718;SDS011;55696;52.138;5.444;2023-04-25T12:15:47;2.08;;;1.20;;
68718;SDS011;55696;52.138;5.444;2023-04-25T12:18:14;5.57;;;1.60;;
68718;SDS011;55696;52.138;5.444;2023-04-25T12:20:41;7.30;;;1.70;;
68718;SDS011;55696;52.138;5.444;2023-04-25T12:23:08;6.60;;;1.50;;
68718;SDS011;55696;52.138;5.444;2023-04-25T12:25:41;6.73;;;1.47;;
68718;SDS011;55696;52.138;5.444;2023-04-25T12:30:51;8.50;;;1.50;;
68718;SDS011;55696;52.138;5.444;2023-04-25T12:33:19;3.90;;;1.30;;
68718;SDS011;55696;52.138;5.444;2023-04-25T12:35:46;4.43;;;1.35;;
68718;SDS011;55696;52.138;5.444;2023-04-25T12:38:27;11.40;;;1.90;;
68718;SDS011;55696;52.138;5.444;2023-04-25T12:40:56;7.45;;;1.52;;
68718;SDS011;55696;52.138;5.444;2023-04-25T12:43:24;4.05;;;1.20;;
68718;SDS011;55696;52.138;5.444;2023-04-25T12:45:51;4.50;;;1.55;;
68718;SDS011;55696;52.138;5.444;2023-04-25T12:48:19;4.53;;;1.50;;
68718;SDS011;55696;52.138;5.444;2023-04-25T12:50:47;6.60;;;1.53;;
68718;SDS011;55696;52.138;5.444;2023-04-25T12:53:15;2.85;;;1.30;;
68718;SDS011;55696;52.138;5.444;2023-04-25T12:55:42;3.58;;;1.20;;
68718;SDS011;55696;52.138;5.444;2023-04-25T12:58:12;5.35;;;1.25;;
68718;SDS011;55696;52.138;5.444;2023-04-25T13:00:39;4.90;;;1.20;;
68718;SDS011;55696;52.138;5.444;2023-04-25T13:03:07;3.83;;;1.23;;
68718;SDS011;55696;52.138;5.444;2023-04-25T13:05:35;8.55;;;1.85;;
68718;SDS011;55696;52.138;5.444;2023-04-25T13:08:02;3.72;;;1.08;;
68718;SDS011;55696;52.138;5.444;2023-04-25T13:10:30;4.05;;;1.38;;
68718;SDS011;55696;52.138;5.444;2023-04-25T13:12:57;5.28;;;1.30;;
68718;SDS011;55696;52.138;5.444;2023-04-25T13:15:24;6.47;;;1.77;;
68718;SDS011;55696;52.138;5.444;2023-04-25T13:17:51;3.33;;;1.75;;
68718;SDS011;55696;52.138;5.444;2023-04-25T13:20:17;4.40;;;1.20;;
68718;SDS011;55696;52.138;5.444;2023-04-25T13:22:45;5.25;;;1.00;;
68718;SDS011;55696;52.138;5.444;2023-04-25T13:25:11;4.78;;;1.48;;
68718;SDS011;55696;52.138;5.444;2023-04-25T13:27:38;6.90;;;2.13;;
68718;SDS011;55696;52.138;5.444;2023-04-25T13:30:06;4.82;;;1.45;;
68718;SDS011;55696;52.138;5.444;2023-04-25T13:32:34;4.97;;;1.48;;
68718;SDS011;55696;52.138;5.444;2023-04-25T13:35:05;12.68;;;1.73;;
68718;SDS011;55696;52.138;5.444;2023-04-25T13:37:36;4.72;;;1.40;;
68718;SDS011;55696;52.138;5.444;2023-04-25T13:40:04;6.43;;;1.43;;
68718;SDS011;55696;52.138;5.444;2023-04-25T13:42:32;5.95;;;1.33;;
68718;SDS011;55696;52.138;5.444;2023-04-25T13:44:59;5.10;;;1.98;;
68718;SDS011;55696;52.138;5.444;2023-04-25T13:47:26;4.35;;;1.60;;
68718;SDS011;55696;52.138;5.444;2023-04-25T13:49:53;7.38;;;2.00;;
68718;SDS011;55696;52.138;5.444;2023-04-25T13:52:20;4.23;;;1.40;;
68718;SDS011;55696;52.138;5.444;2023-04-25T13:54:47;5.75;;;1.40;;
68718;SDS011;55696;52.138;5.444;2023-04-25T13:57:14;5.45;;;1.70;;
68718;SDS011;55696;52.138;5.444;2023-04-25T13:59:41;5.45;;;1.30;;
68718;SDS011;55696;52.138;5.444;2023-04-25T14:02:08;4.47;;;1.50;;
68718;SDS011;55696;52.138;5.444;2023-04-25T14:04:35;5.93;;;1.60;;
68718;SDS011;55696;52.138;5.444;2023-04-25T14:07:02;10.82;;;1.70;;
68718;SDS011;55696;52.138;5.444;2023-04-25T14:09:29;4.72;;;1.40;;
68718;SDS011;55696;52.138;5.444;2023-04-25T14:11:56;4.75;;;1.30;;
68718;SDS011;55696;52.138;5.444;2023-04-25T14:14:23;5.72;;;1.50;;
68718;SDS011;55696;52.138;5.444;2023-04-25T14:16:50;7.17;;;1.40;;
68718;SDS011;55696;52.138;5.444;2023-04-25T14:19:20;5.15;;;1.75;;
68718;SDS011;55696;52.138;5.444;2023-04-25T14:21:47;7.43;;;1.60;;
68718;SDS011;55696;52.138;5.444;2023-04-25T14:24:14;7.05;;;2.03;;
68718;SDS011;55696;52.138;5.444;2023-04-25T14:26:42;7.05;;;1.52;;
68718;SDS011;55696;52.138;5.444;2023-04-25T14:29:09;7.73;;;1.80;;
68718;SDS011;55696;52.138;5.444;2023-04-25T14:31:39;4.32;;;1.60;;
68718;SDS011;55696;52.138;5.444;2023-04-25T14:34:06;4.97;;;1.63;;
68718;SDS011;55696;52.138;5.444;2023-04-25T14:36:35;5.18;;;1.10;;
68718;SDS011;55696;52.138;5.444;2023-04-25T14:39:02;5.93;;;1.50;;
68718;SDS011;55696;52.138;5.444;2023-04-25T14:41:31;4.67;;;1.50;;
68718;SDS011;55696;52.138;5.444;2023-04-25T14:43:58;4.63;;;1.70;;
68718;SDS011;55696;52.138;5.444;2023-04-25T14:46:25;5.20;;;1.60;;
68718;SDS011;55696;52.138;5.444;2023-04-25T14:48:53;4.43;;;1.67;;
68718;SDS011;55696;52.138;5.444;2023-04-25T14:51:22;5.03;;;1.73;;
68718;SDS011;55696;52.138;5.444;2023-04-25T14:53:48;4.30;;;1.70;;
68718;SDS011;55696;52.138;5.444;2023-04-25T14:56:17;4.82;;;1.33;;
68718;SDS011;55696;52.138;5.444;2023-04-25T14:58:43;4.95;;;1.25;;
68718;SDS011;55696;52.138;5.444;2023-04-25T15:01:11;5.88;;;1.88;;
68718;SDS011;55696;52.138;5.444;2023-04-25T15:03:42;4.45;;;1.30;;
68718;SDS011;55696;52.138;5.444;2023-04-25T15:06:09;7.30;;;1.30;;
68718;SDS011;55696;52.138;5.444;2023-04-25T15:08:36;6.60;;;1.48;;
68718;SDS011;55696;52.138;5.444;2023-04-25T15:11:03;8.70;;;1.63;;